Time;durP1;ratioP1;P1;durP2;ratioP2;P2;SDS_P1;SDS_P2;PMS_P1;PMS_P2;Temp;Humidity;BMP_temperature;BMP_pressure;BME280_temperature;BME280_humidity;BME280_pressure;Samples;Min_cycle;Max_cycle;Signal;HPM_P1;HPM_P2
2022/07/20 00:01:43;;;;;;;5.33;3.22;;;;;;;15.34;100.00;100044.78;1728573;82;21074;-68
2022/07/20 00:04:09;;;;;;;5.20;3.08;;;;;;;15.31;100.00;100051.42;1737820;82;21541;-68
2022/07/20 00:06:36;;;;;;;;;;;;;;;15.24;100.00;100046.85;1740855;82;21106;-68
2022/07/20 00:11:47;;;;;;;4.85;3.42;;;;;;;15.19;100.00;100045.02;1732629;82;21011;-68
2022/07/20 00:14:15;;;;;;;5.60;4.00;;;;;;;15.20;100.00;100043.88;1732664;82;21011;-68
2022/07/20 00:16:41;;;;;;;;;;;;;;;15.21;100.00;100041.96;1736440;82;21066;-68
2022/07/20 00:19:07;;;;;;;4.03;3.20;;;;;;;15.23;100.00;100039.17;1727122;81;20109;-68
2022/07/20 00:21:35;;;;;;;5.05;3.62;;;;;;;15.19;100.00;100043.64;1740200;82;21537;-68
2022/07/20 00:24:01;;;;;;;7.67;3.90;;;;;;;15.21;100.00;100045.52;1728663;82;21007;-69
2022/07/20 00:26:28;;;;;;;4.90;3.70;;;;;;;15.23;100.00;100044.66;1738636;82;21062;-68
2022/07/20 00:28:54;;;;;;;;;;;;;;;15.21;100.00;100029.62;1742602;82;21058;-68
2022/07/20 00:31:21;;;;;;;6.78;3.60;;;;;;;15.21;100.00;100040.59;1742964;82;20119;-68
2022/07/20 00:33:48;;;;;;;7.15;3.90;;;;;;;15.17;100.00;100035.43;1736125;82;21074;-68
2022/07/20 00:36:18;;;;;;;4.58;3.40;;;;;;;15.14;100.00;100038.22;1747053;82;21625;-69
2022/07/20 00:38:44;;;;;;;4.65;3.50;;;;;;;15.10;100.00;100037.72;1740528;82;21039;-68
2022/07/20 00:41:11;;;;;;;5.90;3.47;;;;;;;15.09;100.00;100041.01;1721504;82;21090;-69
2022/07/20 00:44:03;;;;;;;4.87;3.52;;;;;;;15.08;100.00;100043.52;1739343;82;20987;-68
2022/07/20 00:46:31;;;;;;;4.10;3.27;;;;;;;15.10;100.00;100038.53;1657085;84;21139;-68
2022/07/20 00:48:57;;;;;;;5.92;3.60;;;;;;;15.12;100.00;100030.03;1660333;84;21689;-69
2022/07/20 00:51:24;;;;;;;;;;;;;;;15.10;100.00;100035.80;1705136;82;21031;-69
2022/07/20 00:53:51;;;;;;;5.00;3.33;;;;;;;15.09;100.00;100030.04;1734113;82;20122;-69
2022/07/20 00:56:17;;;;;;;6.75;3.70;;;;;;;15.05;100.00;100026.28;1732610;82;21070;-68
2022/07/20 00:58:44;;;;;;;4.97;3.87;;;;;;;15.05;100.00;100027.66;1729555;82;21118;-69
2022/07/20 01:01:11;;;;;;;5.58;4.00;;;;;;;15.07;100.00;100029.53;1743139;82;21082;-69
2022/07/20 01:03:38;;;;;;;4.83;3.72;;;;;;;15.05;100.00;100032.31;1732994;82;21026;-68
2022/07/20 01:06:05;;;;;;;5.08;4.00;;;;;;;15.04;100.00;100026.02;1737087;82;21596;-69
2022/07/20 01:08:31;;;;;;;6.50;3.50;;;;;;;15.04;100.00;100023.27;1729415;82;21556;-68
2022/07/20 01:11:00;;;;;;;6.55;3.67;;;;;;;15.08;100.00;100024.31;1731180;82;21095;-68
2022/07/20 01:13:27;;;;;;;7.95;3.60;;;;;;;15.11;100.00;100027.02;1731892;82;21054;-68
2022/07/20 01:15:56;;;;;;;4.40;3.58;;;;;;;15.11;100.00;100028.39;1740335;82;21020;-68
2022/07/20 01:18:22;;;;;;;4.40;3.42;;;;;;;15.11;100.00;100027.84;1721512;82;21032;-68
2022/07/20 01:20:50;;;;;;;4.80;3.83;;;;;;;15.11;100.00;100030.58;1720899;82;21051;-68
2022/07/20 01:23:17;;;;;;;6.35;3.37;;;;;;;15.12;100.00;100031.41;1720067;82;21597;-68
2022/07/20 01:25:44;;;;;;;4.40;3.50;;;;;;;15.13;100.00;100022.86;1722644;82;21075;-68
2022/07/20 01:28:13;;;;;;;5.90;3.27;;;;;;;15.16;100.00;100032.45;1731071;82;21063;-68
2022/07/20 01:30:40;;;;;;;4.90;3.33;;;;;;;15.18;100.00;100025.55;1720766;82;21024;-68
2022/07/20 01:33:08;;;;;;;5.92;3.62;;;;;;;15.21;100.00;100028.25;1712500;82;21106;-68
2022/07/20 01:35:34;;;;;;;4.30;3.50;;;;;;;15.23;100.00;100026.05;1717163;82;21068;-67
2022/07/20 01:38:01;;;;;;;4.30;3.10;;;;;;;15.22;100.00;100030.70;1715788;82;21535;-68
2022/07/20 01:40:27;;;;;;;;;;;;;;;15.18;100.00;100026.92;1734730;82;21040;-68
2022/07/20 01:42:54;;;;;;;5.40;3.33;;;;;;;15.18;100.00;100022.80;1730860;82;20127;-69
2022/07/20 01:45:20;;;;;;;;;;;;;;;15.15;100.00;100028.89;1726336;82;20983;-69
2022/07/20 01:47:46;;;;;;;5.17;3.40;;;;;;;15.13;100.00;100026.97;1709989;82;20137;-68
2022/07/20 01:50:12;;;;;;;;;;;;;;;15.07;100.00;100021.30;1724228;82;20996;-68
2022/07/20 01:52:39;;;;;;;4.47;2.85;;;;;;;15.08;100.00;100018.84;1719946;82;20422;-69
2022/07/20 01:55:06;;;;;;;4.12;3.00;;;;;;;15.06;100.00;100026.52;1726702;82;20956;-68
2022/07/20 01:57:33;;;;;;;5.12;3.42;;;;;;;15.03;100.00;100015.33;1708009;82;21563;-68
2022/07/20 01:59:59;;;;;;;6.67;3.22;;;;;;;14.96;100.00;100017.06;1713847;82;21026;-68
2022/07/20 02:02:26;;;;;;;4.15;3.20;;;;;;;14.91;100.00;100017.93;1731007;82;21095;-68
2022/07/20 02:04:52;;;;;;;;;;;;;;;14.94;100.00;100020.66;1719915;82;21672;-68
2022/07/20 02:07:20;;;;;;;3.25;2.58;;;;;;;14.95;100.00;100029.12;1723660;82;20156;-68
2022/07/20 02:09:47;;;;;;;4.10;2.98;;;;;;;14.91;100.00;100022.63;1727439;82;21110;-68
2022/07/20 02:12:13;;;;;;;4.83;2.90;;;;;;;14.91;100.00;100018.52;1734103;82;21044;-68
2022/07/20 02:14:40;;;;;;;4.47;3.10;;;;;;;14.91;100.00;100018.52;1718314;82;21047;-68
2022/07/20 02:17:06;;;;;;;5.35;3.47;;;;;;;14.93;100.00;100018.47;1725834;82;21147;-68
2022/07/20 02:19:33;;;;;;;;;;;;;;;14.94;100.00;100023.41;1741111;81;21023;-68
2022/07/20 02:22:00;;;;;;;4.08;3.15;;;;;;;14.90;100.00;100022.36;1734487;82;20137;-68
2022/07/20 02:24:26;;;;;;;4.25;2.85;;;;;;;14.80;100.00;100022.48;1734781;82;21007;-68
2022/07/20 02:26:52;;;;;;;;;;;;;;;14.80;100.00;100024.67;1737445;82;21058;-69
2022/07/20 02:29:18;;;;;;;4.10;2.75;;;;;;;14.82;100.00;100021.08;1739455;82;20115;-68
2022/07/20 02:31:45;;;;;;;3.92;2.60;;;;;;;14.79;100.00;100025.77;1739959;82;21684;-68
2022/07/20 02:34:13;;;;;;;3.80;3.00;;;;;;;14.80;100.00;100032.08;1735258;82;21067;-69
2022/07/20 02:36:39;;;;;;;3.67;2.67;;;;;;;14.75;100.00;100028.02;1707711;82;21569;-68
2022/07/20 02:39:07;;;;;;;;;;;;;;;14.71;100.00;100033.81;1740573;82;21093;-68
2022/07/20 02:41:34;;;;;;;4.15;2.92;;;;;;;14.67;100.00;100025.91;1739475;82;20101;-68
2022/07/20 02:44:01;;;;;;;4.10;2.67;;;;;;;14.62;100.00;100032.83;1736396;82;21512;-68
2022/07/20 02:46:28;;;;;;;4.00;3.00;;;;;;;14.64;100.00;100038.83;1737711;82;21098;-68
2022/07/20 02:48:54;;;;;;;5.17;2.60;;;;;;;14.70;100.00;100037.68;1735671;82;21067;-68
2022/07/20 02:51:21;;;;;;;3.62;2.80;;;;;;;14.72;100.00;100042.30;1730768;81;21667;-69
2022/07/20 02:53:49;;;;;;;7.55;2.77;;;;;;;14.73;100.00;100040.66;1706662;82;21575;-68
2022/07/20 02:56:15;;;;;;;3.70;2.60;;;;;;;14.77;100.00;100039.52;1726974;82;21675;-68
2022/07/20 02:58:42;;;;;;;4.40;2.67;;;;;;;14.79;100.00;100040.84;1738124;82;21111;-68
2022/07/20 03:01:09;;;;;;;3.77;2.80;;;;;;;14.83;100.00;100044.64;1735103;82;21033;-69
2022/07/20 03:03:35;;;;;;;3.83;2.95;;;;;;;14.87;100.00;100036.65;1733459;82;21576;-68
2022/07/20 03:06:02;;;;;;;4.03;3.12;;;;;;;14.90;100.00;100036.06;1725060;82;21059;-68
2022/07/20 03:08:30;;;;;;;4.83;3.05;;;;;;;14.98;100.00;100038.71;1722491;82;21078;-69
2022/07/20 03:10:56;;;;;;;;;;;;;;;15.05;100.00;100036.43;1716541;82;21102;-68
2022/07/20 03:13:23;;;;;;;6.08;2.60;;;;;;;15.12;100.00;100036.88;1729793;82;20133;-68
2022/07/20 03:15:49;;;;;;;;;;;;;;;15.14;100.00;100037.39;1736104;82;21517;-68
2022/07/20 03:18:17;;;;;;;3.77;2.98;;;;;;;15.18;100.00;100040.63;1733670;82;20129;-68
2022/07/20 03:20:43;;;;;;;;;;;;;;;15.20;100.00;100037.02;1724319;82;20984;-68
2022/07/20 03:23:09;;;;;;;4.28;2.90;;;;;;;15.28;100.00;100041.86;1730174;82;20381;-68
2022/07/20 03:25:35;;;;;;;5.55;2.72;;;;;;;15.27;100.00;100044.34;1726256;82;21064;-68
2022/07/20 03:28:02;;;;;;;;;;;;;;;15.26;100.00;100046.84;1735104;82;21050;-68
2022/07/20 03:30:29;;;;;;;3.90;2.50;;;;;;;15.30;100.00;100051.97;1725872;82;20142;-68
2022/07/20 03:32:55;;;;;;;3.92;2.85;;;;;;;15.30;100.00;100052.55;1724349;82;21066;-68
2022/07/20 03:35:23;;;;;;;5.53;2.80;;;;;;;15.33;100.00;100049.21;1733703;82;20976;-68
2022/07/20 03:37:50;;;;;;;3.27;2.52;;;;;;;15.42;100.00;100052.36;1730744;82;21411;-69
2022/07/20 03:40:17;;;;;;;4.00;2.58;;;;;;;15.53;100.00;100046.20;1729093;82;21621;-69
2022/07/20 03:42:43;;;;;;;;;;;;;;;15.68;100.00;100054.77;1705001;82;21024;-68
2022/07/20 03:45:10;;;;;;;4.05;2.50;;;;;;;15.87;100.00;100046.77;1731771;82;20095;-68
2022/07/20 03:47:36;;;;;;;4.22;2.65;;;;;;;16.05;100.00;100041.56;1725455;82;21035;-68
2022/07/20 03:50:03;;;;;;;5.58;2.90;;;;;;;16.27;100.00;100041.15;1727838;82;21031;-68
2022/07/20 03:52:30;;;;;;;3.52;2.42;;;;;;;16.49;100.00;100043.78;1717559;82;21720;-68
2022/07/20 03:54:56;;;;;;;4.87;2.67;;;;;;;16.74;100.00;100036.46;1730994;82;21070;-68
2022/07/20 03:57:23;;;;;;;5.60;2.75;;;;;;;17.07;100.00;100031.11;1735179;82;21075;-68
2022/07/20 03:59:50;;;;;;;3.77;2.50;;;;;;;17.37;100.00;100030.44;1722656;82;21028;-69
2022/07/20 04:02:16;;;;;;;3.52;2.45;;;;;;;17.69;100.00;100027.26;1732063;82;21099;-69
2022/07/20 04:04:43;;;;;;;3.87;2.50;;;;;;;17.89;100.00;100014.36;1732981;82;21095;-69
2022/07/20 04:07:09;;;;;;;5.22;2.52;;;;;;;18.18;100.00;100020.23;1736805;82;21063;-68
2022/07/20 04:09:46;;;;;;;3.52;2.60;;;;;;;18.39;100.00;100021.33;1725653;82;21087;-69
2022/07/20 04:12:19;;;;;;;4.97;2.35;;;;;;;18.61;100.00;100012.22;1726187;82;21095;-69
2022/07/20 04:14:46;;;;;;;4.55;2.65;;;;;;;18.93;100.00;100012.41;1726088;82;21019;-68
2022/07/20 04:17:13;;;;;;;4.80;2.52;;;;;;;19.14;100.00;99998.83;1734002;82;21043;-69
2022/07/20 04:19:39;;;;;;;4.25;2.42;;;;;;;19.38;100.00;99995.03;1727466;82;21055;-69
2022/07/20 04:22:06;;;;;;;3.25;2.25;;;;;;;19.58;100.00;99995.02;1716389;82;21071;-69
2022/07/20 04:24:33;;;;;;;3.12;2.02;;;;;;;19.66;100.00;99986.70;1725964;82;21039;-69
2022/07/20 04:26:59;;;;;;;3.90;2.10;;;;;;;19.78;100.00;99981.34;1720384;82;21082;-69
2022/07/20 04:29:26;;;;;;;5.05;2.42;;;;;;;19.90;100.00;99973.78;1729330;82;21428;-69
2022/07/20 04:31:54;;;;;;;3.95;2.40;;;;;;;20.12;100.00;99965.26;1714329;82;21577;-69
2022/07/20 04:34:21;;;;;;;4.72;2.40;;;;;;;20.21;100.00;99961.10;1728895;82;21091;-69
2022/07/20 04:36:47;;;;;;;3.15;2.20;;;;;;;20.46;100.00;99964.38;1722723;82;21585;-68
2022/07/20 04:39:14;;;;;;;3.72;2.17;;;;;;;20.71;100.00;99953.77;1721985;82;21573;-69
2022/07/20 04:41:40;;;;;;;4.17;2.22;;;;;;;20.91;100.00;99952.17;1715992;82;21043;-69
2022/07/20 04:44:07;;;;;;;3.35;2.00;;;;;;;21.05;100.00;99947.77;1732666;82;21102;-68
2022/07/20 04:46:33;;;;;;;3.70;2.37;;;;;;;21.32;100.00;99947.30;1720041;82;21629;-68
2022/07/20 04:49:01;;;;;;;3.50;2.08;;;;;;;21.69;100.00;99943.53;1714172;82;21025;-68
2022/07/20 04:51:29;;;;;;;3.58;2.20;;;;;;;21.95;100.00;99944.70;1736115;82;21550;-68
2022/07/20 04:53:55;;;;;;;4.15;1.95;;;;;;;22.30;100.00;99940.38;1730687;82;21066;-68
2022/07/20 04:56:22;;;;;;;3.20;2.22;;;;;;;22.67;100.00;99930.73;1719482;82;21079;-68
2022/07/20 04:58:52;;;;;;;4.75;2.20;;;;;;;22.83;100.00;99920.53;1718133;82;21020;-69
2022/07/20 05:01:17;;;;;;;3.58;2.30;;;;;;;22.88;100.00;99925.05;1731080;82;21434;-69
2022/07/20 05:03:43;;;;;;;5.83;2.35;;;;;;;22.83;100.00;99922.49;1717707;82;21063;-69
2022/07/20 05:06:10;;;;;;;3.67;2.17;;;;;;;22.78;100.00;99921.56;1724065;82;21064;-68
2022/07/20 05:08:38;;;;;;;3.75;2.47;;;;;;;22.76;100.00;99930.02;1726404;81;21672;-69
2022/07/20 05:11:05;;;;;;;3.30;2.62;;;;;;;22.96;100.00;99924.90;1723104;82;21107;-71
2022/07/20 05:13:31;;;;;;;3.52;2.52;;;;;;;23.28;100.00;99914.76;1715845;82;21036;-69
2022/07/20 05:15:59;;;;;;;5.87;3.12;;;;;;;23.66;100.00;99910.15;1714479;82;21079;-69
2022/07/20 05:18:27;;;;;;;3.83;2.95;;;;;;;23.97;100.00;99885.77;1708693;82;20960;-69
2022/07/20 05:20:54;;;;;;;4.50;2.90;;;;;;;23.97;100.00;99885.77;1726203;82;21524;-69
2022/07/20 05:23:22;;;;;;;3.72;2.40;;;;;;;23.98;100.00;99896.54;1719569;82;21011;-70
2022/07/20 05:25:49;;;;;;;3.50;2.55;;;;;;;24.00;100.00;99888.64;1715097;82;21047;-67
2022/07/20 05:28:18;;;;;;;3.45;2.20;;;;;;;24.26;100.00;99882.59;1721952;82;20983;-67
2022/07/20 05:30:48;;;;;;;5.78;2.45;;;;;;;24.33;100.00;99883.34;1720712;82;21043;-67
2022/07/20 05:33:16;;;;;;;3.80;2.30;;;;;;;24.45;100.00;99881.25;1719099;82;21020;-67
2022/07/20 05:35:43;;;;;;;4.65;2.30;;;;;;;24.68;100.00;99871.09;1722301;82;21055;-66
2022/07/20 05:38:11;;;;;;;3.17;1.90;;;;;;;24.58;100.00;99860.52;1716928;82;21008;-68
2022/07/20 05:40:38;;;;;;;3.40;2.00;;;;;;;24.59;100.00;99861.30;1729221;82;21114;-68
2022/07/20 05:43:04;;;;;;;3.40;2.33;;;;;;;24.73;100.00;99857.45;1726766;82;21039;-68
2022/07/20 05:45:31;;;;;;;2.90;1.87;;;;;;;24.93;100.00;99853.58;1713661;82;21043;-68
2022/07/20 05:47:57;;;;;;;3.72;2.12;;;;;;;25.13;100.00;99853.00;1720788;82;20987;-68
2022/07/20 05:50:24;;;;;;;2.50;1.95;;;;;;;25.26;100.00;99843.31;1720335;82;20983;-68
2022/07/20 05:52:51;;;;;;;2.87;1.80;;;;;;;25.27;100.00;99842.15;1726870;82;21114;-68
2022/07/20 05:55:18;;;;;;;3.47;2.33;;;;;;;25.50;100.00;99846.40;1720176;82;21517;-69
2022/07/20 05:57:45;;;;;;;6.65;3.45;;;;;;;25.60;100.00;99831.30;1720910;82;21095;-69
2022/07/20 06:00:12;;;;;;;3.87;2.27;;;;;;;25.23;100.00;99844.86;1735868;82;21047;-68
2022/07/20 06:02:39;;;;;;;5.47;2.55;;;;;;;24.96;100.00;99842.29;1713954;82;21114;-68
2022/07/20 06:05:07;;;;;;;3.52;2.00;;;;;;;25.14;100.00;99845.68;1719245;82;21015;-69
2022/07/20 06:07:34;;;;;;;3.00;1.92;;;;;;;25.42;100.00;99839.88;1722537;82;21419;-67
2022/07/20 06:10:01;;;;;;;3.10;2.00;;;;;;;25.62;100.00;99836.48;1716166;81;20984;-67
2022/07/20 06:12:28;;;;;;;3.37;2.00;;;;;;;25.82;100.00;99828.32;1712237;82;21477;-69
2022/07/20 06:14:56;;;;;;;4.92;2.47;;;;;;;26.00;100.00;99818.28;1715967;82;21044;-69
2022/07/20 06:17:22;;;;;;;3.02;1.95;;;;;;;26.23;100.00;99817.69;1709237;84;21067;-68
2022/07/20 06:19:49;;;;;;;4.55;2.00;;;;;;;26.47;100.00;99810.06;1714723;82;21441;-69
2022/07/20 06:22:16;;;;;;;4.87;2.05;;;;;;;26.64;100.00;99808.92;1730646;80;21129;-68
2022/07/20 06:24:43;;;;;;;4.35;2.30;;;;;;;26.60;100.00;99808.68;1734075;80;21098;-68
2022/07/20 06:27:12;;;;;;;3.65;2.50;;;;;;;26.28;100.00;99810.18;1746465;80;21027;-68
2022/07/20 06:29:39;;;;;;;3.35;2.15;;;;;;;26.30;100.00;99807.81;1743010;80;21046;-68
2022/07/20 06:32:06;;;;;;;2.95;2.10;;;;;;;26.39;100.00;99811.16;1737727;82;21157;-68
2022/07/20 06:34:33;;;;;;;4.92;2.25;;;;;;;26.42;100.00;99813.19;1725529;82;21043;-68
2022/07/20 06:37:00;;;;;;;3.92;2.22;;;;;;;26.60;100.00;99812.87;1727824;82;21600;-67
2022/07/20 06:39:26;;;;;;;4.10;2.17;;;;;;;26.84;100.00;99813.83;1730115;82;21880;-67
2022/07/20 06:41:53;;;;;;;4.37;2.52;;;;;;;27.06;100.00;99814.92;1728731;82;21094;-68
2022/07/20 06:44:19;;;;;;;4.45;2.42;;;;;;;27.19;100.00;99807.30;1730871;80;21093;-68
2022/07/20 06:46:46;;;;;;;4.92;2.17;;;;;;;27.34;100.00;99804.67;1740268;82;21122;-67
2022/07/20 06:49:14;;;;;;;3.87;2.22;;;;;;;27.35;100.00;99803.48;1731753;82;21059;-68
2022/07/20 06:51:41;;;;;;;3.95;2.33;;;;;;;27.23;100.00;99799.55;1732563;82;21158;-68
2022/07/20 06:54:08;;;;;;;2.90;2.00;;;;;;;27.41;100.00;99800.55;1735606;82;21023;-68
2022/07/20 06:56:35;;;;;;;7.17;2.40;;;;;;;27.53;100.00;99798.31;1703508;82;21472;-68
2022/07/20 06:59:01;;;;;;;3.70;2.37;;;;;;;27.52;100.00;99790.32;1728002;82;21055;-67
2022/07/20 07:01:28;;;;;;;4.80;2.20;;;;;;;27.64;100.00;99791.42;1725823;82;21078;-68
2022/07/20 07:03:55;;;;;;;4.97;2.40;;;;;;;27.82;100.00;99776.20;1729480;82;21011;-68
2022/07/20 07:06:24;;;;;;;4.08;2.33;;;;;;;27.97;100.00;99780.16;1749312;82;21660;-68
2022/07/20 07:08:50;;;;;;;4.12;2.30;;;;;;;28.02;100.00;99779.00;1735965;82;21498;-69
2022/07/20 07:11:18;;;;;;;4.80;2.50;;;;;;;27.80;100.00;99771.02;1730345;82;21043;-67
2022/07/20 07:13:45;;;;;;;5.53;2.80;;;;;;;27.84;100.00;99773.26;1727569;82;21531;-67
2022/07/20 07:16:12;;;;;;;4.28;2.70;;;;;;;27.73;100.00;99765.36;1731318;82;21514;-68
2022/07/20 07:18:39;;;;;;;4.65;2.67;;;;;;;27.38;100.00;99771.38;1732502;82;20959;-67
2022/07/20 07:21:05;;;;;;;5.15;2.70;;;;;;;26.99;100.00;99768.73;1726254;81;21047;-70
2022/07/20 07:23:32;;;;;;;3.90;2.80;;;;;;;26.75;100.00;99767.19;1709449;82;21585;-67
2022/07/20 07:25:58;;;;;;;6.28;3.22;;;;;;;26.53;100.00;99763.91;1711269;82;21048;-68
2022/07/20 07:28:26;;;;;;;4.20;3.10;;;;;;;26.38;100.00;99757.32;1723057;82;21012;-68
2022/07/20 07:30:52;;;;;;;4.15;2.98;;;;;;;26.31;100.00;99753.62;1720741;82;21559;-68
2022/07/20 07:34:15;;;;;;;;;;;;;;;26.65;100.00;99752.50;1803360;79;23255;-66
2022/07/20 07:36:43;;;;;;;5.75;3.00;;;;;;;26.78;100.00;99739.92;1749804;80;20107;-66
2022/07/20 07:39:10;;;;;;;5.08;3.17;;;;;;;26.69;100.00;99740.78;1724571;82;21047;-68
2022/07/20 07:41:36;;;;;;;3.83;2.95;;;;;;;26.80;100.00;99735.34;1731858;82;21835;-68
2022/07/20 07:44:03;;;;;;;4.00;2.83;;;;;;;26.98;100.00;99733.01;1730162;81;21050;-67
2022/07/20 07:46:30;;;;;;;4.17;3.05;;;;;;;27.14;100.00;99729.39;1732879;82;21550;-68
2022/07/20 07:48:57;;;;;;;3.22;2.80;;;;;;;27.20;100.00;99724.27;1752131;82;21058;-68
2022/07/20 07:51:23;;;;;;;5.15;2.80;;;;;;;27.44;100.00;99711.73;1746476;82;21086;-68
2022/07/20 07:53:50;;;;;;;4.60;2.70;;;;;;;27.55;100.00;99716.27;1730404;82;21043;-66
2022/07/20 07:56:18;;;;;;;3.65;2.80;;;;;;;27.57;100.00;99704.68;1729689;80;21084;-67
2022/07/20 07:58:45;;;;;;;7.87;2.80;;;;;;;27.43;100.00;99704.52;1726996;82;21612;-65
2022/07/20 08:01:11;;;;;;;6.70;3.08;;;;;;;27.44;100.00;99709.73;1736649;82;21532;-65
2022/07/20 08:03:37;;;;;;;4.67;2.87;;;;;;;27.40;100.00;99712.28;1731250;80;21027;-65
2022/07/20 08:06:05;;;;;;;4.08;2.80;;;;;;;27.36;100.00;99705.27;1731683;82;21118;-65
2022/07/20 08:08:34;;;;;;;4.17;2.90;;;;;;;27.25;100.00;99695.97;1736470;80;21058;-64
2022/07/20 08:14:25;;;;;;;;;;;;;;;26.94;100.00;99707.61;1804537;78;22914;-65
2022/07/20 08:16:53;;;;;;;4.70;2.70;;;;;;;26.87;100.00;99703.34;1762019;80;20133;-65
2022/07/20 08:19:19;;;;;;;4.65;2.50;;;;;;;26.83;100.00;99703.30;1755763;80;21027;-65
2022/07/20 08:21:46;;;;;;;3.80;2.60;;;;;;;27.13;100.00;99704.64;1766233;80;21055;-66
2022/07/20 08:24:14;;;;;;;5.78;2.70;;;;;;;27.33;100.00;99691.25;1758900;80;21062;-66
2022/07/20 08:26:40;;;;;;;3.58;2.40;;;;;;;27.48;100.00;99681.84;1754790;80;21632;-66
2022/07/20 08:29:07;;;;;;;4.03;2.30;;;;;;;27.55;100.00;99682.72;1756753;80;20991;-65
2022/07/20 08:31:34;;;;;;;5.08;2.62;;;;;;;27.67;100.00;99678.20;1758957;80;21079;-67
2022/07/20 08:34:01;;;;;;;3.87;2.70;;;;;;;27.70;100.00;99678.05;1762758;80;21089;-67
2022/07/20 08:36:27;;;;;;;5.67;2.67;;;;;;;27.73;100.00;99670.27;1759355;80;21628;-69
2022/07/20 08:38:54;;;;;;;3.52;2.42;;;;;;;27.90;100.00;99672.39;1755653;80;21054;-68
2022/07/20 08:41:21;;;;;;;4.25;2.42;;;;;;;27.92;100.00;99671.98;1755945;80;21050;-70
2022/07/20 08:43:47;;;;;;;4.70;2.95;;;;;;;28.10;100.00;99662.55;1758216;80;20994;-69
2022/07/20 08:46:14;;;;;;;3.62;2.52;;;;;;;28.26;100.00;99661.45;1747131;80;21022;-69
2022/07/20 08:48:41;;;;;;;7.12;2.55;;;;;;;28.42;100.00;99653.52;1768720;80;21067;-68
2022/07/20 08:51:08;;;;;;;5.80;3.12;;;;;;;28.45;100.00;99647.93;1747444;80;21024;-70
2022/07/20 08:53:34;;;;;;;4.75;2.90;;;;;;;28.40;100.00;99638.53;1719845;83;21039;-69
2022/07/20 08:56:01;;;;;;;5.03;2.55;;;;;;;28.40;100.00;99631.53;1756222;80;21038;-70
2022/07/20 08:58:28;;;;;;;4.50;2.95;;;;;;;28.19;100.00;99644.02;1757410;81;21022;-70
2022/07/20 09:00:54;;;;;;;4.03;2.50;;;;;;;27.81;100.00;99634.16;1747823;80;21031;-69
2022/07/20 09:03:22;;;;;;;5.00;2.92;;;;;;;27.55;100.00;99632.39;1758530;81;21600;-69
2022/07/20 09:06:04;;;;;;;6.25;2.60;;;;;;;27.42;100.00;99624.67;1761346;80;21038;-69
2022/07/20 09:08:31;;;;;;;4.60;3.00;;;;;;;27.30;100.00;99631.94;1758022;80;21478;-68
2022/07/20 09:11:01;;;;;;;4.42;2.35;;;;;;;27.21;100.00;99616.88;1740481;80;21077;-67
2022/07/20 09:13:30;;;;;;;4.25;2.50;;;;;;;27.16;100.00;99610.27;1693626;84;21476;-70
2022/07/20 09:15:58;;;;;;;4.37;2.92;;;;;;;27.23;100.00;99605.33;1734076;81;21676;-69
2022/07/20 09:18:32;;;;;;;5.30;2.90;;;;;;;27.33;100.00;99594.83;1739621;82;21657;-68
2022/07/20 09:21:05;;;;;;;4.25;2.40;;;;;;;27.36;100.00;99582.28;1753927;81;21549;-68
2022/07/20 09:23:43;;;;;;;5.83;2.67;;;;;;;27.49;100.00;99575.21;1751035;81;21011;-68
2022/07/20 09:26:15;;;;;;;6.10;2.77;;;;;;;27.61;100.00;99593.08;1723412;82;21542;-69
2022/07/20 09:28:48;;;;;;;4.90;3.00;;;;;;;27.60;100.00;99590.66;1744642;81;21013;-69
2022/07/20 09:31:21;;;;;;;4.83;2.85;;;;;;;27.52;100.00;99587.05;1743494;81;21520;-68
2022/07/20 09:34:13;;;;;;;6.45;3.20;;;;;;;27.40;100.00;99582.30;1746186;81;21022;-71
2022/07/20 09:36:43;;;;;;;4.45;2.72;;;;;;;27.20;100.00;99578.97;1749690;81;21022;-68
2022/07/20 09:39:18;;;;;;;5.95;3.10;;;;;;;27.10;100.00;99568.51;1751501;81;21026;-71
2022/07/20 09:42:00;;;;;;;4.67;2.80;;;;;;;27.18;100.00;99565.38;1747618;81;21030;-66
2022/07/20 09:44:29;;;;;;;5.83;2.80;;;;;;;27.25;100.00;99555.43;1754602;81;21507;-67
2022/07/20 09:46:56;;;;;;;4.75;2.92;;;;;;;27.36;100.00;99547.34;1754018;81;21022;-66
2022/07/20 09:49:32;;;;;;;5.47;3.08;;;;;;;27.32;100.00;99546.51;1749804;81;21566;-66
2022/07/20 09:52:00;;;;;;;4.47;3.10;;;;;;;27.21;100.00;99533.86;1738100;81;21672;-66
2022/07/20 09:54:26;;;;;;;5.80;2.50;;;;;;;27.24;100.00;99535.69;1745437;81;21015;-66
2022/07/20 09:56:54;;;;;;;7.40;3.10;;;;;;;27.30;100.00;99526.55;1763366;81;21000;-67
2022/07/20 09:59:22;;;;;;;5.58;2.60;;;;;;;27.38;100.00;99526.00;1752420;81;21060;-67
2022/07/20 10:01:50;;;;;;;6.50;2.70;;;;;;;27.39;100.00;99527.00;1758630;81;21080;-67
2022/07/20 10:04:18;;;;;;;7.67;2.98;;;;;;;27.29;100.00;99515.75;1754222;81;21012;-66
2022/07/20 10:06:50;;;;;;;5.85;2.83;;;;;;;27.34;100.00;99514.00;1750570;81;21036;-66
2022/07/20 10:09:17;;;;;;;6.10;2.72;;;;;;;27.25;100.00;99509.33;1749900;81;21023;-67
2022/07/20 10:11:45;;;;;;;4.60;2.90;;;;;;;27.24;100.00;99494.58;1737631;81;21566;-66
2022/07/20 10:14:12;;;;;;;5.85;3.20;;;;;;;27.31;100.00;99491.83;1673754;85;21059;-67
2022/07/20 10:16:51;;;;;;;5.08;2.72;;;;;;;27.43;100.00;99486.48;1743948;81;21119;-66
2022/07/20 10:19:18;;;;;;;5.12;2.70;;;;;;;27.44;100.00;99479.12;1719855;81;21067;-66
2022/07/20 10:21:49;;;;;;;3.62;2.55;;;;;;;27.36;100.00;99479.46;1738767;81;21076;-67
2022/07/20 10:24:32;;;;;;;3.65;2.75;;;;;;;27.22;100.00;99475.98;1744492;81;21035;-66
2022/07/20 10:27:19;;;;;;;5.20;2.85;;;;;;;27.11;100.00;99473.11;1716997;83;21090;-66
2022/07/20 10:29:52;;;;;;;4.37;2.67;;;;;;;26.96;100.00;99463.02;1743094;81;21034;-66
2022/07/20 10:32:28;;;;;;;4.50;2.85;;;;;;;27.03;100.00;99458.88;1675979;84;21024;-67
2022/07/20 10:35:03;;;;;;;7.00;2.80;;;;;;;27.14;100.00;99451.38;1742325;81;21453;-67
2022/07/20 10:37:42;;;;;;;4.57;2.90;;;;;;;27.15;100.00;99440.42;1697726;81;21016;-67
2022/07/20 10:40:19;;;;;;;3.83;2.50;;;;;;;27.23;100.00;99439.88;1739853;81;20975;-67
2022/07/20 10:43:14;;;;;;;4.95;2.67;;;;;;;27.30;100.00;99439.11;1740159;81;21011;-66
2022/07/20 10:45:41;;;;;;;4.87;2.67;;;;;;;27.40;100.00;99424.39;1739914;81;21047;-67
2022/07/20 10:48:15;;;;;;;7.03;2.50;;;;;;;27.49;100.00;99417.89;1739890;81;21566;-67
2022/07/20 10:50:54;;;;;;;5.90;2.72;;;;;;;27.42;100.00;99416.42;1746175;81;21008;-67
2022/07/20 10:53:28;;;;;;;4.90;2.95;;;;;;;27.40;100.00;99402.03;1729723;81;21050;-66
2022/07/20 10:55:58;;;;;;;5.00;2.70;;;;;;;27.41;100.00;99409.23;1744873;81;21518;-67
2022/07/20 10:58:27;;;;;;;3.85;2.47;;;;;;;27.53;100.00;99408.30;1746284;81;21015;-67
2022/07/20 11:01:01;;;;;;;4.45;2.50;;;;;;;27.64;100.00;99406.36;1742834;81;21039;-65
2022/07/20 11:03:41;;;;;;;6.25;2.83;;;;;;;27.64;100.00;99399.36;1740966;82;21581;-67
2022/07/20 11:06:20;;;;;;;6.00;2.50;;;;;;;27.58;100.00;99394.55;1745478;81;20991;-67
2022/07/20 11:08:56;;;;;;;5.12;2.65;;;;;;;27.54;100.00;99396.53;1729959;81;21605;-66
2022/07/20 11:11:26;;;;;;;4.33;2.77;;;;;;;27.45;100.00;99385.73;1746642;81;21020;-67
2022/07/20 11:13:53;;;;;;;4.55;2.70;;;;;;;27.44;100.00;99389.67;1740535;82;21026;-66
2022/07/20 11:16:22;;;;;;;4.17;2.35;;;;;;;27.46;100.00;99380.32;1744603;81;21126;-66
2022/07/20 11:18:50;;;;;;;4.75;3.00;;;;;;;27.48;100.00;99377.14;1740739;81;21033;-67
2022/07/20 11:21:17;;;;;;;4.22;2.67;;;;;;;27.42;100.00;99382.89;1743669;82;21047;-67
2022/07/20 11:23:47;;;;;;;5.08;2.90;;;;;;;27.32;100.00;99366.25;1740304;81;21043;-65
2022/07/20 11:26:15;;;;;;;5.15;3.05;;;;;;;27.32;100.00;99355.08;1741825;81;21078;-67
2022/07/20 11:28:48;;;;;;;5.83;3.00;;;;;;;27.32;100.00;99363.45;1741934;81;21011;-72
2022/07/20 11:31:15;;;;;;;6.50;3.52;;;;;;;27.26;100.00;99353.05;1682947;84;21529;-70
2022/07/20 11:33:43;;;;;;;4.12;2.80;;;;;;;27.27;100.00;99337.89;1750254;81;21023;-70
2022/07/20 11:36:23;;;;;;;8.50;3.33;;;;;;;27.29;100.00;99339.09;1737610;81;21048;-69
2022/07/20 11:38:52;;;;;;;4.45;3.02;;;;;;;27.34;100.00;99321.96;1738771;81;21590;-71